Ana Sayfa
METAR-TAF:

METAR-TAF

Havaalanları :

Pekin Başkent Uluslararası Havalimanı

Pekin, Çin

Enlem: 39-56N, Boylam: 116-17E, yükseklik: 55 m

Güncel hava durumu gözlemi

Rapor saat 00:00 UTC de 18 dakika önce yapıldı.
Rüzgar doğu/güneydoğudan 4 kt, doğu ve güney/güneydoğu arasında değişken
Sıcaklık 13°C
Nem 38%
Basınç 1021 hPa
Görüş mesafesi 10 km veya daha fazla
1500 m altında bulut yok ve kümülonimbus yok

METAR: ZBAA 190000Z 12002MPS 090V150 CAVOK 13/M01 Q1021 NOSIG

Saat: 08:18 (00:18 UTC)

Tahmin

Rapor saat 21:30 UTC de 2 saat ve 48 dakika önce yapıldı.
Ayın 19'si saat 00 UTC'den ayın 19'si saat 24 UTC'ye kadar geçerli Tahmin
Rüzgar güneydan 8 kt
Görüş mesafesi 10 km veya daha fazla
1500 m altında bulut yok ve kümülonimbus yok

TAF: ZBAA 182130Z 1900/1924 18004MPS CAVOK TX20/1907Z TN09/1921Z

4.000'den fazla havaalanı için hava durumu gözlemleri ve tahminleri (METAR ve TAF raporları).

Kullanılabilir istasyonlar harita üzerinde sarı ve kırmızı noktalarla gösterilir.

İstasyonun adını görmek için fareyi noktanın üzerinde gezdirin.

Sonrasında hava gözlem ve tahminlerini görmek için tıklayın.

Haritayı değiştirmek için: yaklaştırmak için siyah artı işaretli yeşil düğmeye ve uzaklaştırmak için de eksi işaretli düğmeye hızla tıklayın; bitişik haritalar için yeşil okları kullanın.


METAR-TAF: